createdAt,value
2022-09-29T00:00:54.555Z,7.74
2022-09-29T00:03:21.963Z,7.73
2022-09-29T00:05:52.773Z,7.74
2022-09-29T00:08:22.515Z,7.75
2022-09-29T00:10:49.537Z,7.76
2022-09-29T00:13:16.643Z,7.75
2022-09-29T00:15:43.877Z,7.76
2022-09-29T00:18:14.922Z,7.79
2022-09-29T00:20:43.890Z,7.78
2022-09-29T00:23:10.498Z,7.75
2022-09-29T00:25:36.973Z,7.75
2022-09-29T00:28:05.742Z,7.72
2022-09-29T00:30:32.350Z,7.73
2022-09-29T00:32:58.942Z,7.71
2022-09-29T00:35:25.467Z,7.70
2022-09-29T00:37:53.717Z,7.69
2022-09-29T00:40:23.746Z,7.69
2022-09-29T00:42:50.251Z,7.68
2022-09-29T00:45:24.499Z,7.67
2022-09-29T00:48:10.822Z,7.67
2022-09-29T00:50:53.534Z,7.66
2022-09-29T00:53:22.170Z,7.64
2022-09-29T00:55:54.568Z,7.64
2022-09-29T00:58:24.125Z,7.66
2022-09-29T01:00:50.674Z,7.66
2022-09-29T01:03:22.164Z,7.65
2022-09-29T01:06:01.677Z,7.65
2022-09-29T01:08:47.477Z,7.64
2022-09-29T01:11:14.703Z,7.62
2022-09-29T01:13:41.824Z,7.61
2022-09-29T01:16:15.810Z,7.61
2022-09-29T01:18:45.444Z,7.63
2022-09-29T01:21:28.551Z,7.64
2022-09-29T01:24:30.150Z,7.64
2022-09-29T01:27:26.518Z,7.64
2022-09-29T01:30:08.106Z,7.63
2022-09-29T01:32:40.773Z,7.63
2022-09-29T01:35:19.342Z,7.63
2022-09-29T01:38:04.520Z,7.60
2022-09-29T01:40:41.356Z,7.61
2022-09-29T01:43:20.836Z,7.63
2022-09-29T01:46:05.114Z,7.59
2022-09-29T01:48:39.343Z,7.54
2022-09-29T01:51:13.502Z,7.51
2022-09-29T01:53:51.247Z,7.47
2022-09-29T01:56:35.217Z,7.46
2022-09-29T01:59:17.265Z,7.45
2022-09-29T02:01:49.029Z,7.45
2022-09-29T02:04:33.398Z,7.44
2022-09-29T02:07:26.297Z,7.43
2022-09-29T02:10:01.048Z,7.45
2022-09-29T02:12:32.743Z,7.43
2022-09-29T02:15:03.200Z,7.40
2022-09-29T02:17:42.915Z,7.38
2022-09-29T02:20:14.313Z,7.38
2022-09-29T02:22:42.545Z,7.39
2022-09-29T02:25:12.033Z,7.39
2022-09-29T02:27:45.656Z,7.40
2022-09-29T02:30:12.794Z,7.43
2022-09-29T02:32:39.563Z,7.44
2022-09-29T02:35:10.677Z,7.45
2022-09-29T02:37:47.649Z,7.47
2022-09-29T02:40:30.417Z,7.48
2022-09-29T02:43:15.690Z,7.50
2022-09-29T02:46:02.428Z,7.52
2022-09-29T02:48:43.550Z,7.53
2022-09-29T02:51:29.461Z,7.53
2022-09-29T02:54:11.289Z,7.55
2022-09-29T02:56:56.279Z,7.55
2022-09-29T02:59:50.675Z,7.54
2022-09-29T03:02:24.208Z,7.54
2022-09-29T03:04:50.826Z,7.55
2022-09-29T03:07:17.339Z,7.55
2022-09-29T03:09:48.086Z,7.55
2022-09-29T03:12:14.650Z,7.54
2022-09-29T03:14:41.203Z,7.55
2022-09-29T03:17:17.662Z,7.55
2022-09-29T03:19:45.217Z,7.55
2022-09-29T03:22:11.745Z,7.54
2022-09-29T03:24:38.363Z,7.55
2022-09-29T03:27:04.859Z,7.53
2022-09-29T03:29:33.634Z,7.51
2022-09-29T03:32:00.586Z,7.51
2022-09-29T03:34:27.310Z,7.50
2022-09-29T03:36:53.816Z,7.51
2022-09-29T03:39:27.440Z,7.49
2022-09-29T03:41:54.073Z,7.49
2022-09-29T03:44:20.682Z,7.48
2022-09-29T03:46:47.617Z,7.49
2022-09-29T03:49:15.685Z,7.49
2022-09-29T03:51:42.741Z,7.49
2022-09-29T03:54:09.912Z,7.51
2022-09-29T03:56:37.561Z,7.51
2022-09-29T03:59:08.460Z,7.50
2022-09-29T04:01:42.204Z,7.51
2022-09-29T04:04:09.462Z,7.50
2022-09-29T04:06:39.603Z,7.50
2022-09-29T04:09:08.347Z,7.50
2022-09-29T04:11:34.817Z,7.51
2022-09-29T04:14:01.351Z,7.50
2022-09-29T04:16:28.137Z,7.49
2022-09-29T04:18:56.940Z,7.48
2022-09-29T04:21:23.481Z,7.50
2022-09-29T04:23:52.403Z,7.48
2022-09-29T04:26:20.934Z,7.48
2022-09-29T04:28:47.699Z,7.49
2022-09-29T04:31:14.755Z,7.50
2022-09-29T04:33:41.579Z,7.49
2022-09-29T04:36:08.397Z,7.47
2022-09-29T04:38:37.547Z,7.47
2022-09-29T04:41:04.345Z,7.44
2022-09-29T04:43:31.007Z,7.43
2022-09-29T04:46:08.527Z,7.43
2022-09-29T04:48:36.330Z,7.43
2022-09-29T04:51:03.612Z,7.39
2022-09-29T04:53:30.606Z,7.38
2022-09-29T04:55:57.085Z,7.36
2022-09-29T04:58:23.840Z,7.37
2022-09-29T05:00:52.115Z,7.39
2022-09-29T05:03:18.659Z,7.39
2022-09-29T05:05:45.478Z,7.39
2022-09-29T05:08:14.166Z,7.39
2022-09-29T05:10:40.710Z,7.40
2022-09-29T05:13:07.185Z,7.42
2022-09-29T05:15:35.501Z,7.43
2022-09-29T05:18:03.408Z,7.44
2022-09-29T05:20:41.799Z,7.44
2022-09-29T05:23:11.531Z,7.44
2022-09-29T05:25:41.505Z,7.46
2022-09-29T05:28:09.499Z,7.46
2022-09-29T05:30:42.184Z,7.46
2022-09-29T05:33:08.691Z,7.46
2022-09-29T05:35:35.173Z,7.47
2022-09-29T05:38:01.876Z,7.46
2022-09-29T05:40:30.196Z,7.47
2022-09-29T05:42:58.919Z,7.47
2022-09-29T05:45:25.539Z,7.49
2022-09-29T05:47:52.234Z,7.51
2022-09-29T05:50:18.708Z,7.52
2022-09-29T05:52:49.429Z,7.54
2022-09-29T05:55:16.501Z,7.55
2022-09-29T05:57:43.159Z,7.56
2022-09-29T06:00:11.697Z,7.57
2022-09-29T06:02:38.458Z,7.59
2022-09-29T06:05:05.935Z,7.61
2022-09-29T06:07:32.503Z,7.64
2022-09-29T06:09:59.111Z,7.61
2022-09-29T06:12:25.866Z,7.60
2022-09-29T06:14:54.618Z,7.63
2022-09-29T06:17:21.087Z,7.61
2022-09-29T06:19:47.569Z,7.65
2022-09-29T06:22:14.105Z,7.68
2022-09-29T06:24:40.584Z,7.65
2022-09-29T06:27:07.064Z,7.65
2022-09-29T06:29:35.273Z,7.66
2022-09-29T06:32:02.630Z,7.69
2022-09-29T06:34:29.489Z,7.71
2022-09-29T06:37:16.587Z,7.77
2022-09-29T06:39:43.641Z,7.79
2022-09-29T06:42:10.159Z,7.82
2022-09-29T06:44:36.750Z,7.82
2022-09-29T06:47:03.228Z,7.84
2022-09-29T06:49:29.703Z,7.87
2022-09-29T06:52:16.250Z,7.86
2022-09-29T06:54:45.681Z,7.87
2022-09-29T06:57:12.488Z,7.90
2022-09-29T06:59:43.752Z,7.92
2022-09-29T07:02:11.746Z,8.02
2022-09-29T07:04:38.248Z,8.13
2022-09-29T07:07:09.092Z,8.14
2022-09-29T07:09:35.648Z,8.21
2022-09-29T07:12:06.145Z,8.24
2022-09-29T07:14:32.886Z,8.29
2022-09-29T07:17:00.582Z,8.38
2022-09-29T07:19:27.033Z,8.42
2022-09-29T07:21:55.316Z,8.47
2022-09-29T07:24:26.361Z,8.48
2022-09-29T07:26:52.876Z,8.55
2022-09-29T07:29:19.934Z,8.56
2022-09-29T07:31:52.596Z,8.59
2022-09-29T07:34:21.026Z,8.66
2022-09-29T07:36:47.611Z,8.67
2022-09-29T07:39:14.099Z,8.73
2022-09-29T07:41:42.435Z,8.83
2022-09-29T07:44:13.295Z,8.94
2022-09-29T07:46:39.911Z,9.03
2022-09-29T07:49:06.630Z,9.04
2022-09-29T07:51:33.231Z,9.10
2022-09-29T07:54:04.524Z,9.19
2022-09-29T07:56:36.694Z,9.17
2022-09-29T07:59:04.360Z,9.23
2022-09-29T08:01:31.949Z,9.29
2022-09-29T08:03:58.672Z,9.27
2022-09-29T08:06:26.930Z,9.37
2022-09-29T08:09:04.131Z,9.31
2022-09-29T08:11:33.474Z,9.37
2022-09-29T08:14:01.487Z,9.37
2022-09-29T08:16:28.690Z,9.43
2022-09-29T08:18:55.398Z,9.43
2022-09-29T08:21:22.061Z,9.46
2022-09-29T08:23:48.776Z,9.46
2022-09-29T08:26:20.436Z,9.51
2022-09-29T08:29:05.255Z,9.54
2022-09-29T08:31:34.133Z,9.53
2022-09-29T08:34:03.526Z,9.52
2022-09-29T08:36:30.065Z,9.59
2022-09-29T08:38:59.531Z,9.56
2022-09-29T08:41:46.432Z,9.58
2022-09-29T08:44:34.043Z,9.59
2022-09-29T08:47:43.893Z,9.63
2022-09-29T08:50:31.487Z,9.58
2022-09-29T08:53:03.410Z,9.56
2022-09-29T08:55:46.561Z,9.56
2022-09-29T08:58:16.981Z,9.58
2022-09-29T09:01:11.270Z,9.62
2022-09-29T09:07:05.595Z,9.66
2022-09-29T09:09:59.501Z,9.66
2022-09-29T09:12:52.520Z,9.76
2022-09-29T09:15:48.578Z,9.93
2022-09-29T09:18:20.315Z,10.00
2022-09-29T09:21:02.456Z,10.04
2022-09-29T09:23:58.300Z,9.96
2022-09-29T09:26:36.636Z,9.97
2022-09-29T09:29:11.578Z,10.04
2022-09-29T09:32:07.542Z,10.04
2022-09-29T09:34:58.901Z,9.95
2022-09-29T09:37:41.757Z,9.95
2022-09-29T09:40:26.477Z,9.96
2022-09-29T09:43:02.053Z,10.00
2022-09-29T09:45:37.068Z,10.09
2022-09-29T09:48:12.184Z,10.12
2022-09-29T09:50:44.784Z,10.13
2022-09-29T09:53:17.992Z,10.18
2022-09-29T09:55:53.278Z,10.32
2022-09-29T09:58:28.868Z,10.47
2022-09-29T10:01:03.812Z,10.60
2022-09-29T10:03:31.464Z,10.69
2022-09-29T10:05:58.707Z,10.76
2022-09-29T10:08:34.046Z,10.83
2022-09-29T10:11:00.602Z,10.82
2022-09-29T10:13:29.495Z,10.87
2022-09-29T10:16:16.694Z,11.08
2022-09-29T10:18:46.671Z,11.26
2022-09-29T10:21:32.498Z,11.24
2022-09-29T10:24:02.670Z,11.27
2022-09-29T10:26:41.388Z,11.37
2022-09-29T10:29:29.039Z,11.44
2022-09-29T10:32:16.532Z,11.67
2022-09-29T10:34:47.160Z,11.72
2022-09-29T10:37:24.911Z,11.83
2022-09-29T10:40:04.745Z,12.19
2022-09-29T10:42:40.053Z,12.24
2022-09-29T10:45:18.825Z,12.50
2022-09-29T10:47:54.851Z,12.75
2022-09-29T10:50:27.059Z,12.93
2022-09-29T10:52:57.640Z,13.01
2022-09-29T10:55:35.494Z,13.05
2022-09-29T10:58:53.228Z,12.99
2022-09-29T11:01:27.468Z,12.97
2022-09-29T11:04:01.738Z,13.08
2022-09-29T11:06:30.343Z,13.01
2022-09-29T11:09:07.268Z,13.14
2022-09-29T11:11:39.428Z,13.44
2022-09-29T11:14:06.105Z,13.50
2022-09-29T11:16:35.433Z,13.56
2022-09-29T11:19:05.925Z,13.87
2022-09-29T11:21:56.120Z,13.96
2022-09-29T11:24:44.221Z,13.80
2022-09-29T11:27:43.412Z,13.88
2022-09-29T11:30:19.874Z,13.74
2022-09-29T11:33:26.344Z,13.52
2022-09-29T11:36:00.336Z,13.56
2022-09-29T11:38:40.690Z,13.48
2022-09-29T11:41:10.026Z,13.50
2022-09-29T11:43:56.298Z,13.71
2022-09-29T11:46:44.254Z,13.71
2022-09-29T11:49:27.765Z,13.81
2022-09-29T11:52:33.216Z,14.00
2022-09-29T11:55:24.814Z,14.10
2022-09-29T11:58:30.454Z,14.21
2022-09-29T12:01:28.323Z,14.26
2022-09-29T12:04:43.209Z,14.00
2022-09-29T12:07:32.256Z,13.94
2022-09-29T12:10:25.971Z,13.86
2022-09-29T12:13:24.249Z,13.92
2022-09-29T12:16:10.411Z,13.88
2022-09-29T12:18:54.860Z,13.91
2022-09-29T12:21:57.790Z,14.22
2022-09-29T12:24:32.170Z,14.41
2022-09-29T12:27:02.672Z,14.57
2022-09-29T12:30:12.281Z,14.91
2022-09-29T12:33:06.068Z,14.99
2022-09-29T12:35:55.749Z,15.01
2022-09-29T12:38:42.341Z,14.59
2022-09-29T12:41:25.460Z,14.56
2022-09-29T12:44:00.691Z,14.30
2022-09-29T12:46:46.259Z,14.06
2022-09-29T12:49:29.806Z,14.26
2022-09-29T12:51:58.219Z,14.42
2022-09-29T12:54:32.781Z,14.55
2022-09-29T12:57:08.529Z,14.72
2022-09-29T12:59:38.267Z,14.49
2022-09-29T13:02:25.305Z,14.31
2022-09-29T13:05:16.825Z,14.34
2022-09-29T13:08:19.165Z,14.47
2022-09-29T13:11:01.415Z,14.53
2022-09-29T13:13:51.275Z,14.82
2022-09-29T13:16:28.422Z,14.88
2022-09-29T13:19:45.824Z,14.64
2022-09-29T13:22:32.245Z,14.38
2022-09-29T13:25:14.116Z,14.50
2022-09-29T13:27:44.436Z,14.60
2022-09-29T13:30:22.016Z,14.50
2022-09-29T13:32:50.059Z,14.45
2022-09-29T13:35:19.777Z,14.27
2022-09-29T13:37:52.819Z,13.95
2022-09-29T13:40:22.415Z,13.62
2022-09-29T13:42:51.677Z,13.68
2022-09-29T13:45:21.326Z,13.65
2022-09-29T13:47:56.717Z,13.76
2022-09-29T13:50:53.176Z,13.49
2022-09-29T13:53:19.773Z,13.29
2022-09-29T13:55:50.835Z,13.10
2022-09-29T13:58:29.401Z,12.99
2022-09-29T14:01:05.842Z,12.87
2022-09-29T14:03:45.453Z,12.72
2022-09-29T14:06:40.563Z,12.73
2022-09-29T14:09:17.769Z,12.60
2022-09-29T14:11:49.551Z,12.47
2022-09-29T14:14:16.402Z,12.42
2022-09-29T14:16:50.326Z,12.51
2022-09-29T14:19:41.877Z,12.48
2022-09-29T14:22:28.687Z,12.36
2022-09-29T14:25:08.959Z,12.28
2022-09-29T14:27:37.642Z,12.27
2022-09-29T14:30:15.712Z,12.28
2022-09-29T14:32:57.841Z,12.22
2022-09-29T14:35:29.025Z,12.21
2022-09-29T14:38:21.785Z,12.24
2022-09-29T14:41:18.652Z,12.15
2022-09-29T14:43:48.729Z,12.11
2022-09-29T14:46:42.138Z,12.05
2022-09-29T14:49:38.822Z,12.06
2022-09-29T14:52:19.805Z,12.10
2022-09-29T14:55:04.093Z,11.99
2022-09-29T14:57:56.834Z,11.99
2022-09-29T15:00:35.620Z,11.93
2022-09-29T15:03:23.571Z,11.96
2022-09-29T15:06:07.399Z,11.94
2022-09-29T15:08:36.617Z,11.94
2022-09-29T15:11:05.603Z,11.99
2022-09-29T15:13:36.343Z,11.91
2022-09-29T15:16:31.325Z,11.85
2022-09-29T15:19:31.113Z,11.81
2022-09-29T15:22:21.907Z,11.80
2022-09-29T15:25:09.644Z,11.75
2022-09-29T15:27:39.801Z,11.70
2022-09-29T15:30:18.617Z,11.68
2022-09-29T15:32:48.332Z,11.66
2022-09-29T15:35:20.044Z,11.61
2022-09-29T15:37:49.764Z,11.55
2022-09-29T15:40:21.576Z,11.51
2022-09-29T15:42:48.411Z,11.48
2022-09-29T15:45:24.375Z,11.44
2022-09-29T15:48:02.382Z,11.39
2022-09-29T15:50:34.389Z,11.36
2022-09-29T15:53:02.755Z,11.30
2022-09-29T15:55:31.732Z,11.27
2022-09-29T15:58:02.550Z,11.24
2022-09-29T16:00:37.901Z,11.15
2022-09-29T16:03:12.719Z,11.08
2022-09-29T16:05:45.478Z,11.05
2022-09-29T16:08:16.065Z,10.97
2022-09-29T16:10:53.348Z,10.88
2022-09-29T16:13:27.294Z,10.86
2022-09-29T16:16:00.343Z,10.82
2022-09-29T16:18:31.299Z,10.78
2022-09-29T16:21:05.696Z,10.68
2022-09-29T16:23:39.564Z,10.62
2022-09-29T16:26:16.235Z,10.55
2022-09-29T16:29:06.312Z,10.52
2022-09-29T16:31:33.517Z,10.49
2022-09-29T16:34:04.352Z,10.48
2022-09-29T16:36:36.977Z,10.45
2022-09-29T16:39:07.221Z,10.38
2022-09-29T16:41:39.528Z,10.32
2022-09-29T16:44:10.294Z,10.32
2022-09-29T16:47:12.952Z,10.30
2022-09-29T16:49:52.102Z,10.22
2022-09-29T16:52:38.050Z,10.19
2022-09-29T16:55:27.970Z,10.13
2022-09-29T16:58:03.104Z,10.11
2022-09-29T17:00:31.282Z,10.07
2022-09-29T17:03:05.810Z,10.04
2022-09-29T17:05:46.029Z,10.00
2022-09-29T17:08:22.295Z,9.92
2022-09-29T17:10:54.744Z,9.84
2022-09-29T17:13:21.807Z,9.76
2022-09-29T17:15:51.517Z,9.73
2022-09-29T17:18:20.716Z,9.66
2022-09-29T17:20:49.027Z,9.61
2022-09-29T17:23:15.524Z,9.60
2022-09-29T17:25:45.134Z,9.56
2022-09-29T17:28:27.823Z,9.53
2022-09-29T17:30:55.856Z,9.51
2022-09-29T17:33:22.652Z,9.48
2022-09-29T17:35:55.278Z,9.48
2022-09-29T17:38:24.133Z,9.45
2022-09-29T17:41:04.920Z,9.45
2022-09-29T17:43:31.863Z,9.44
2022-09-29T17:46:00.810Z,9.43
2022-09-29T17:48:29.070Z,9.40
2022-09-29T17:50:59.542Z,9.39
2022-09-29T17:53:26.591Z,9.38
2022-09-29T17:55:56.217Z,9.36
2022-09-29T17:58:23.351Z,9.33
2022-09-29T18:00:57.576Z,9.30
2022-09-29T18:03:26.705Z,9.28
2022-09-29T18:05:59.988Z,9.26
2022-09-29T18:08:33.779Z,9.25
2022-09-29T18:11:01.735Z,9.21
2022-09-29T18:13:31.720Z,9.22
2022-09-29T18:16:01.236Z,9.19
2022-09-29T18:18:27.959Z,9.17
2022-09-29T18:20:54.706Z,9.18
2022-09-29T18:23:24.210Z,9.17
2022-09-29T18:25:52.686Z,9.13
2022-09-29T18:28:19.525Z,9.14
2022-09-29T18:30:49.745Z,9.15
2022-09-29T18:33:18.837Z,9.14
2022-09-29T18:35:53.319Z,9.14
2022-09-29T18:38:20.020Z,9.13
2022-09-29T18:40:47.345Z,9.10
2022-09-29T18:43:18.268Z,9.10
2022-09-29T18:45:45.163Z,9.09
2022-09-29T18:48:13.788Z,9.07
2022-09-29T18:50:50.473Z,9.06
2022-09-29T18:53:20.664Z,9.06
2022-09-29T18:55:49.834Z,9.04
2022-09-29T18:58:20.690Z,9.03
2022-09-29T19:00:50.342Z,9.01
2022-09-29T19:03:19.258Z,9.01
2022-09-29T19:05:48.472Z,9.02
2022-09-29T19:08:18.005Z,9.01
2022-09-29T19:10:50.511Z,8.99
2022-09-29T19:13:17.369Z,8.94
2022-09-29T19:15:45.242Z,8.94
2022-09-29T19:18:25.248Z,8.92
2022-09-29T19:20:55.196Z,8.92
2022-09-29T19:23:22.981Z,8.93
2022-09-29T19:25:53.246Z,8.94
2022-09-29T19:28:21.372Z,8.92
2022-09-29T19:30:48.981Z,8.91
2022-09-29T19:33:21.099Z,8.91
2022-09-29T19:35:51.054Z,8.93
2022-09-29T19:38:18.701Z,8.94
2022-09-29T19:40:46.952Z,8.92
2022-09-29T19:43:14.466Z,8.90
2022-09-29T19:45:42.296Z,8.87
2022-09-29T19:48:13.880Z,8.86
2022-09-29T19:51:04.429Z,8.90
2022-09-29T19:53:31.397Z,8.89
2022-09-29T19:55:57.952Z,8.89
2022-09-29T19:58:24.572Z,8.86
2022-09-29T20:00:57.169Z,8.86
2022-09-29T20:03:23.707Z,8.82
2022-09-29T20:05:50.223Z,8.78
2022-09-29T20:08:16.817Z,8.79
2022-09-29T20:10:43.347Z,8.80
2022-09-29T20:13:10.559Z,8.78
2022-09-29T20:15:37.405Z,8.77
2022-09-29T20:18:03.910Z,8.77
2022-09-29T20:20:30.710Z,8.76
2022-09-29T20:22:59.126Z,8.75
2022-09-29T20:25:25.586Z,8.76
2022-09-29T20:27:52.182Z,8.77
2022-09-29T20:30:25.346Z,8.77
2022-09-29T20:32:52.170Z,8.76
2022-09-29T20:35:18.648Z,8.78
2022-09-29T20:37:47.215Z,8.77
2022-09-29T20:40:13.749Z,8.77
2022-09-29T20:42:42.013Z,8.78
2022-09-29T20:45:11.345Z,8.78
2022-09-29T20:47:37.814Z,8.78
2022-09-29T20:50:05.437Z,8.80
2022-09-29T20:52:32.561Z,8.80
2022-09-29T20:55:00.875Z,8.81
2022-09-29T20:57:27.407Z,8.80
2022-09-29T20:59:57.325Z,8.81
2022-09-29T21:02:23.992Z,8.80
2022-09-29T21:04:50.639Z,8.80
2022-09-29T21:07:37.291Z,8.81
2022-09-29T21:10:10.009Z,8.81
2022-09-29T21:12:37.119Z,8.80
2022-09-29T21:15:04.681Z,8.79
2022-09-29T21:17:31.211Z,8.77
2022-09-29T21:19:57.753Z,8.80
2022-09-29T21:22:28.915Z,8.80
2022-09-29T21:24:55.459Z,8.80
2022-09-29T21:27:21.937Z,8.78
2022-09-29T21:29:48.630Z,8.80
2022-09-29T21:32:15.378Z,8.80
2022-09-29T21:34:42.335Z,8.81
2022-09-29T21:37:12.448Z,8.81
2022-09-29T21:39:38.903Z,8.81
2022-09-29T21:42:05.454Z,8.77
2022-09-29T21:44:39.753Z,8.73
2022-09-29T21:47:06.613Z,8.73
2022-09-29T21:49:33.061Z,8.71
2022-09-29T21:52:08.302Z,8.71
2022-09-29T21:54:37.668Z,8.70
2022-09-29T21:57:06.826Z,8.68
2022-09-29T21:59:35.609Z,8.68
2022-09-29T22:02:02.517Z,8.66
2022-09-29T22:04:29.103Z,8.65
2022-09-29T22:06:55.718Z,8.63
2022-09-29T22:09:22.825Z,8.63
2022-09-29T22:11:50.378Z,8.62
2022-09-29T22:14:22.681Z,8.61
2022-09-29T22:16:49.280Z,8.63
2022-09-29T22:19:23.451Z,8.62
2022-09-29T22:21:54.312Z,8.60
2022-09-29T22:24:21.963Z,8.57
2022-09-29T22:26:48.552Z,8.56
2022-09-29T22:29:15.323Z,8.56
2022-09-29T22:31:41.968Z,8.55
2022-09-29T22:34:12.654Z,8.53
2022-09-29T22:36:41.230Z,8.52
2022-09-29T22:39:08.294Z,8.48
2022-09-29T22:41:36.932Z,8.45
2022-09-29T22:44:12.252Z,8.40
2022-09-29T22:46:38.831Z,8.39
2022-09-29T22:49:05.336Z,8.37
2022-09-29T22:51:32.327Z,8.36
2022-09-29T22:53:59.660Z,8.35
2022-09-29T22:56:29.010Z,8.33
2022-09-29T22:59:00.321Z,8.33
2022-09-29T23:01:27.116Z,8.31
2022-09-29T23:03:53.832Z,8.29
2022-09-29T23:06:20.577Z,8.29
2022-09-29T23:08:49.135Z,8.26
2022-09-29T23:11:20.497Z,8.23
2022-09-29T23:13:48.172Z,8.20
2022-09-29T23:16:16.534Z,8.14
2022-09-29T23:18:45.429Z,8.13
2022-09-29T23:21:19.813Z,8.11
2022-09-29T23:23:57.465Z,8.07
2022-09-29T23:26:30.517Z,8.05
2022-09-29T23:28:57.056Z,8.03
2022-09-29T23:31:26.330Z,8.03
2022-09-29T23:33:57.985Z,8.01
2022-09-29T23:36:26.216Z,8.06
2022-09-29T23:39:11.233Z,8.09
2022-09-29T23:41:49.907Z,8.10
2022-09-29T23:44:21.303Z,8.09
2022-09-29T23:46:48.094Z,8.07
2022-09-29T23:49:16.918Z,8.07
2022-09-29T23:51:48.850Z,8.03
2022-09-29T23:54:18.150Z,8.03
2022-09-29T23:56:46.166Z,8.03
2022-09-29T23:59:12.879Z,8.04
